Time;durP1;ratioP1;P1;durP2;ratioP2;P2;SDS_P1;SDS_P2;PMS_P1;PMS_P2;Temp;Humidity;BMP_temperature;BMP_pressure;BME280_temperature;BME280_humidity;BME280_pressure;Samples;Min_cycle;Max_cycle;Signal;HPM_P1;HPM_P2
2021/07/02 00:01:44;;;;;;;2.45;1.80;;;18.60;99.90;;;;;;4190259;28;20033;-61
2021/07/02 00:03:45;;;;;;;4.18;1.75;;;18.50;99.90;;;;;;4191214;28;20028;-61
2021/07/02 00:05:47;;;;;;;5.72;2.22;;;18.50;99.90;;;;;;4190429;28;20032;-61
2021/07/02 00:07:48;;;;;;;3.10;2.08;;;18.40;99.90;;;;;;4190470;28;20082;-62
2021/07/02 00:09:49;;;;;;;4.55;2.20;;;18.40;99.90;;;;;;4189322;28;20049;-61
2021/07/02 00:11:50;;;;;;;4.60;2.00;;;18.40;99.90;;;;;;4191694;28;20037;-61
2021/07/02 00:13:51;;;;;;;4.90;2.00;;;18.40;99.90;;;;;;4189687;28;20049;-61
2021/07/02 00:15:52;;;;;;;4.32;2.10;;;18.30;99.90;;;;;;4190307;28;20032;-61
2021/07/02 00:17:53;;;;;;;3.97;1.90;;;18.20;99.90;;;;;;4190126;28;20504;-61
2021/07/02 00:19:55;;;;;;;2.80;1.83;;;18.20;99.90;;;;;;4190527;28;20032;-61
2021/07/02 00:21:56;;;;;;;4.55;1.83;;;18.20;99.90;;;;;;4190548;28;20028;-61
2021/07/02 00:23:57;;;;;;;4.05;2.38;;;18.20;99.90;;;;;;4189994;28;20446;-61
2021/07/02 00:25:58;;;;;;;2.50;1.88;;;18.20;99.90;;;;;;4190534;28;20036;-61
2021/07/02 00:27:59;;;;;;;2.22;1.50;;;18.10;99.90;;;;;;4190475;28;20357;-61
2021/07/02 00:30:00;;;;;;;1.95;1.63;;;18.20;99.90;;;;;;4191284;28;20094;-61
2021/07/02 00:32:01;;;;;;;6.13;2.40;;;18.10;99.90;;;;;;4189885;28;20121;-62
2021/07/02 00:34:03;;;;;;;3.75;1.90;;;18.00;99.90;;;;;;4190485;28;20079;-60
2021/07/02 00:36:04;;;;;;;2.55;2.00;;;18.00;99.90;;;;;;4189716;28;20044;-61
2021/07/02 00:38:05;;;;;;;5.72;1.80;;;18.00;99.90;;;;;;4190913;28;20118;-61
2021/07/02 00:40:07;;;;;;;4.00;2.00;;;17.90;99.90;;;;;;4189858;28;20054;-61
2021/07/02 00:42:08;;;;;;;8.63;2.70;;;17.90;99.90;;;;;;4190264;28;20032;-60
2021/07/02 00:44:09;;;;;;;3.58;1.63;;;17.90;99.90;;;;;;4190068;28;20114;-61
2021/07/02 00:46:10;;;;;;;4.35;1.83;;;17.90;99.90;;;;;;4190420;28;20102;-62
2021/07/02 00:48:11;;;;;;;3.53;1.83;;;17.90;99.90;;;;;;4189871;28;20099;-61
2021/07/02 00:50:12;;;;;;;3.53;2.13;;;17.90;99.90;;;;;;4190268;28;20644;-61
2021/07/02 00:52:14;;;;;;;6.43;2.20;;;17.90;99.90;;;;;;4189752;28;20036;-61
2021/07/02 00:54:15;;;;;;;5.50;1.70;;;17.80;99.90;;;;;;4189783;28;20125;-59
2021/07/02 00:56:19;;;;;;;4.00;1.60;;;17.80;99.90;;;;;;4190254;28;20435;-61
2021/07/02 00:58:20;;;;;;;4.97;1.80;;;17.80;99.90;;;;;;4190024;28;20536;-61
2021/07/02 01:00:23;;;;;;;2.78;1.75;;;17.80;99.90;;;;;;4189842;28;20040;-60
2021/07/02 01:02:24;;;;;;;6.45;1.88;;;17.80;99.90;;;;;;4189894;28;20040;-60
2021/07/02 01:04:25;;;;;;;3.83;2.25;;;17.80;99.90;;;;;;4190222;28;20911;-61
2021/07/02 01:06:27;;;;;;;3.42;1.67;;;17.80;99.90;;;;;;4189555;28;20477;-61
2021/07/02 01:08:28;;;;;;;3.75;1.98;;;17.80;99.90;;;;;;4190364;28;20040;-60
2021/07/02 01:10:29;;;;;;;2.78;1.80;;;17.80;99.90;;;;;;4189055;28;20048;-61
2021/07/02 01:12:30;;;;;;;4.55;2.20;;;17.80;99.90;;;;;;4190350;28;20067;-62
2021/07/02 01:14:31;;;;;;;4.10;1.98;;;17.80;99.90;;;;;;4189332;28;20036;-61
2021/07/02 01:16:32;;;;;;;4.40;1.60;;;17.80;99.90;;;;;;4188427;28;20036;-60
2021/07/02 01:18:33;;;;;;;3.40;2.30;;;17.70;99.90;;;;;;4189446;28;20858;-61
2021/07/02 01:20:35;;;;;;;1.92;1.63;;;17.70;99.90;;;;;;4189565;28;20036;-61
2021/07/02 01:22:39;;;;;;;10.82;2.10;;;17.70;99.90;;;;;;4189319;28;20473;-61
2021/07/02 01:24:40;;;;;;;2.17;1.63;;;17.70;99.90;;;;;;4184872;28;20040;-61
2021/07/02 01:26:42;;;;;;;9.15;1.88;;;17.70;99.90;;;;;;4190172;28;21026;-61
2021/07/02 01:28:43;;;;;;;3.63;2.03;;;17.70;99.90;;;;;;4189828;28;20482;-61
2021/07/02 01:30:45;;;;;;;4.28;1.75;;;17.70;99.90;;;;;;4189993;28;20028;-61
2021/07/02 01:32:46;;;;;;;4.60;1.55;;;17.70;99.90;;;;;;4189521;28;20020;-61
2021/07/02 01:34:47;;;;;;;4.05;1.90;;;17.70;99.90;;;;;;4189789;28;20465;-60
2021/07/02 01:36:48;;;;;;;1.92;1.80;;;17.60;99.90;;;;;;4188941;28;20024;-61
2021/07/02 01:38:50;;;;;;;4.03;1.40;;;17.60;99.90;;;;;;4190095;28;20086;-62
2021/07/02 01:40:51;;;;;;;4.75;1.58;;;17.60;99.90;;;;;;4188789;28;20098;-61
2021/07/02 01:42:52;;;;;;;6.45;2.03;;;17.60;99.90;;;;;;4189059;28;20130;-59
2021/07/02 01:44:53;;;;;;;3.38;1.52;;;17.50;99.90;;;;;;4188478;28;20467;-61
2021/07/02 01:46:54;;;;;;;2.67;1.42;;;17.50;99.90;;;;;;4189553;28;20036;-61
2021/07/02 01:48:55;;;;;;;4.45;1.85;;;17.50;99.90;;;;;;4189441;28;20477;-60
2021/07/02 01:50:57;;;;;;;2.75;1.50;;;17.50;99.90;;;;;;4188172;28;20028;-60
2021/07/02 01:52:58;;;;;;;5.70;1.80;;;17.50;99.90;;;;;;4189216;28;20522;-60
2021/07/02 01:54:59;;;;;;;5.18;1.67;;;17.40;99.90;;;;;;4188936;28;20090;-59
2021/07/02 01:57:06;;;;;;;3.78;1.50;;;17.40;99.90;;;;;;4188510;28;20497;-60
2021/07/02 01:59:07;;;;;;;2.28;1.52;;;17.40;99.90;;;;;;4189449;28;20036;-61
2021/07/02 02:01:08;;;;;;;9.00;2.28;;;17.40;99.90;;;;;;4188942;28;20496;-60
2021/07/02 02:03:09;;;;;;;3.05;1.70;;;17.30;99.90;;;;;;4189201;28;20044;-61
2021/07/02 02:05:11;;;;;;;7.15;1.63;;;17.30;99.90;;;;;;4188865;28;20105;-60
2021/07/02 02:07:13;;;;;;;5.82;1.67;;;17.30;99.90;;;;;;4188817;28;20052;-59
2021/07/02 02:09:14;;;;;;;5.35;2.33;;;17.20;99.90;;;;;;4189088;28;20041;-60
2021/07/02 02:11:15;;;;;;;5.68;1.98;;;17.20;99.90;;;;;;4188159;28;20028;-61
2021/07/02 02:13:16;;;;;;;3.70;1.73;;;17.20;99.90;;;;;;4189640;28;20470;-60
2021/07/02 02:15:17;;;;;;;5.53;1.95;;;17.10;99.90;;;;;;4188507;28;20841;-58
2021/07/02 02:17:18;;;;;;;8.98;1.80;;;17.10;99.90;;;;;;4188647;28;20037;-60
2021/07/02 02:19:19;;;;;;;5.25;1.88;;;17.10;99.90;;;;;;4188573;28;20169;-60
2021/07/02 02:21:20;;;;;;;6.45;2.25;;;17.00;99.90;;;;;;4187853;28;20446;-61
2021/07/02 02:23:22;;;;;;;5.50;2.17;;;17.00;99.90;;;;;;4188426;28;20044;-60
2021/07/02 02:25:23;;;;;;;2.97;1.77;;;17.00;99.90;;;;;;4188807;28;20133;-59
2021/07/02 02:27:24;;;;;;;4.43;2.00;;;17.00;99.90;;;;;;4188693;28;20048;-60
2021/07/02 02:29:25;;;;;;;2.63;2.05;;;17.00;99.90;;;;;;4188780;28;20771;-60
2021/07/02 02:31:27;;;;;;;2.25;2.03;;;17.00;99.90;;;;;;4188344;28;20189;-60
2021/07/02 02:33:28;;;;;;;8.80;2.53;;;17.00;99.90;;;;;;4188772;28;20040;-61
2021/07/02 02:35:29;;;;;;;5.72;1.92;;;17.00;99.90;;;;;;4188727;28;20048;-60
2021/07/02 02:37:31;;;;;;;3.88;2.05;;;17.10;99.90;;;;;;4188182;28;20094;-60
2021/07/02 02:39:32;;;;;;;6.10;1.73;;;17.10;99.90;;;;;;4188508;28;20040;-60
2021/07/02 02:41:33;;;;;;;2.55;1.70;;;17.10;99.90;;;;;;4187596;28;20037;-61
2021/07/02 02:43:34;;;;;;;4.80;2.15;;;17.10;99.90;;;;;;4188467;28;20048;-59
2021/07/02 02:45:35;;;;;;;5.97;2.35;;;17.20;99.90;;;;;;4183679;28;20086;-60
2021/07/02 02:47:36;;;;;;;5.45;1.92;;;17.20;99.90;;;;;;4188434;28;20036;-59
2021/07/02 02:49:38;;;;;;;7.45;1.67;;;17.20;99.90;;;;;;4187989;28;20082;-60
2021/07/02 02:51:39;;;;;;;12.70;2.15;;;17.20;99.90;;;;;;4188630;28;20105;-61
2021/07/02 02:53:40;;;;;;;3.42;2.00;;;17.20;99.90;;;;;;4187878;28;20117;-61
2021/07/02 02:55:41;;;;;;;3.95;2.05;;;17.10;99.90;;;;;;4187972;28;20078;-61
2021/07/02 02:57:42;;;;;;;4.75;2.83;;;17.10;99.90;;;;;;4188788;28;20029;-60
2021/07/02 02:59:43;;;;;;;5.00;3.67;;;17.00;99.90;;;;;;4188814;28;20530;-60
2021/07/02 03:01:44;;;;;;;3.90;3.42;;;17.10;99.90;;;;;;4188586;28;20037;-61
2021/07/02 03:03:46;;;;;;;7.35;2.22;;;17.10;99.90;;;;;;4188349;28;20530;-60
2021/07/02 03:05:49;;;;;;;6.47;2.17;;;17.20;99.90;;;;;;4188700;28;20037;-60
2021/07/02 03:07:53;;;;;;;3.58;1.88;;;17.20;99.90;;;;;;4188226;28;20093;-61
2021/07/02 03:09:54;;;;;;;4.40;2.05;;;17.30;99.90;;;;;;4189164;28;20025;-61
2021/07/02 03:11:55;;;;;;;9.93;1.98;;;17.40;99.90;;;;;;4186717;28;20040;-60
2021/07/02 03:13:56;;;;;;;3.58;2.00;;;17.40;99.90;;;;;;4188683;28;20035;-60
2021/07/02 03:15:57;;;;;;;7.97;2.17;;;17.50;99.90;;;;;;4187610;28;20044;-61
2021/07/02 03:17:58;;;;;;;4.78;1.77;;;17.70;99.90;;;;;;4188195;28;20086;-61
2021/07/02 03:20:00;;;;;;;3.50;1.88;;;17.90;99.90;;;;;;4187502;28;20053;-60
2021/07/02 03:22:01;;;;;;;7.63;1.90;;;18.20;99.90;;;;;;4188346;28;20036;-60
2021/07/02 03:24:02;;;;;;;6.32;2.35;;;18.70;99.90;;;;;;4187231;28;20032;-61
2021/07/02 03:26:03;;;;;;;3.25;1.63;;;19.20;99.90;;;;;;4188240;28;20074;-60
2021/07/02 03:28:05;;;;;;;5.68;1.88;;;19.70;99.90;;;;;;4187651;28;20086;-61
2021/07/02 03:30:09;;;;;;;4.82;1.85;;;20.30;99.90;;;;;;4188061;28;20020;-60
2021/07/02 03:32:10;;;;;;;5.88;1.70;;;20.80;99.90;;;;;;4187996;28;20439;-60
2021/07/02 03:34:12;;;;;;;4.43;1.67;;;21.20;99.90;;;;;;4188304;28;20078;-60
2021/07/02 03:36:14;;;;;;;3.72;1.92;;;21.30;99.90;;;;;;4188158;28;20530;-60
2021/07/02 03:38:15;;;;;;;6.15;1.90;;;21.40;99.90;;;;;;4187716;28;20033;-61
2021/07/02 03:40:16;;;;;;;11.30;3.97;;;21.50;99.90;;;;;;4187887;28;20048;-61
2021/07/02 03:42:17;;;;;;;5.40;4.70;;;21.70;99.90;;;;;;4187533;28;20079;-59
2021/07/02 03:44:18;;;;;;;3.67;2.05;;;22.10;99.90;;;;;;4188243;28;20086;-61
2021/07/02 03:46:19;;;;;;;5.30;1.70;;;22.50;99.90;;;;;;4187484;28;20032;-62
2021/07/02 03:48:21;;;;;;;2.50;1.63;;;23.10;99.90;;;;;;4188181;28;20045;-61
2021/07/02 03:50:23;;;;;;;1.98;1.50;;;23.40;99.90;;;;;;4187375;28;21169;-63
2021/07/02 03:52:24;;;;;;;3.10;1.77;;;23.80;99.90;;;;;;4188572;28;20473;-61
2021/07/02 03:54:25;;;;;;;4.03;1.90;;;24.10;99.90;;;;;;4190616;28;20538;-62
2021/07/02 03:56:26;;;;;;;5.10;1.40;;;24.50;99.90;;;;;;4190744;28;20040;-61
2021/07/02 03:58:28;;;;;;;1.98;1.30;;;25.00;99.90;;;;;;4190447;28;20477;-62
2021/07/02 04:00:29;;;;;;;2.92;1.58;;;25.20;99.90;;;;;;4189549;28;20469;-60
2021/07/02 04:02:30;;;;;;;5.72;1.52;;;25.10;99.90;;;;;;4190257;28;20086;-61
2021/07/02 04:04:34;;;;;;;3.15;1.60;;;25.20;99.90;;;;;;4191169;28;20484;-61
2021/07/02 04:06:35;;;;;;;2.50;1.20;;;25.30;99.90;;;;;;4190765;28;20066;-61
2021/07/02 04:08:36;;;;;;;1.58;1.00;;;25.30;99.90;;;;;;4190788;28;20032;-60
2021/07/02 04:10:38;;;;;;;4.50;1.40;;;25.40;99.90;;;;;;4190859;28;20795;-61
2021/07/02 04:12:40;;;;;;;2.70;1.33;;;25.40;99.90;;;;;;4190903;28;20086;-60
2021/07/02 04:14:41;;;;;;;3.40;0.95;;;25.20;99.90;;;;;;4191230;28;20494;-61
2021/07/02 04:16:42;;;;;;;1.60;0.80;;;25.10;99.90;;;;;;4190049;28;20032;-61
2021/07/02 04:18:43;;;;;;;3.22;0.90;;;25.00;99.90;;;;;;4191279;28;20024;-61
2021/07/02 04:20:44;;;;;;;3.30;0.90;;;25.10;99.90;;;;;;4190163;28;20423;-60
2021/07/02 04:22:46;;;;;;;7.72;1.08;;;25.40;99.50;;;;;;4191316;28;20049;-61
2021/07/02 04:24:47;;;;;;;4.75;0.85;;;25.90;99.10;;;;;;4189865;28;20443;-61
2021/07/02 04:26:48;;;;;;;2.42;0.90;;;26.50;98.40;;;;;;4190892;28;20098;-61
2021/07/02 04:28:49;;;;;;;2.50;1.17;;;27.20;97.30;;;;;;4190384;28;20094;-61
2021/07/02 04:30:50;;;;;;;2.63;1.10;;;27.40;96.50;;;;;;4190516;28;20145;-61
2021/07/02 04:32:51;;;;;;;6.03;0.80;;;27.70;95.90;;;;;;4189432;28;20021;-61
2021/07/02 04:34:52;;;;;;;2.55;0.93;;;28.20;95.20;;;;;;4190408;28;20121;-61
2021/07/02 04:36:53;;;;;;;3.25;1.08;;;28.80;94.50;;;;;;4190150;28;20032;-62
2021/07/02 04:38:56;;;;;;;4.15;0.88;;;28.90;93.70;;;;;;4190198;28;20825;-61
2021/07/02 04:40:57;;;;;;;4.63;0.93;;;28.60;93.10;;;;;;4189142;28;20017;-61
2021/07/02 04:42:58;;;;;;;2.92;0.77;;;28.70;92.80;;;;;;4189686;28;20067;-61
2021/07/02 04:44:59;;;;;;;1.45;0.95;;;29.20;92.30;;;;;;4190687;28;20086;-60
2021/07/02 04:47:00;;;;;;;8.15;1.13;;;29.50;91.50;;;;;;4189515;28;20070;-61
2021/07/02 04:49:01;;;;;;;5.35;1.08;;;29.60;90.90;;;;;;4189126;28;20037;-60
2021/07/02 04:51:02;;;;;;;6.22;0.82;;;29.60;90.20;;;;;;4188988;28;20086;-61
2021/07/02 04:53:03;;;;;;;1.65;0.80;;;29.30;90.30;;;;;;4190083;28;20826;-61
2021/07/02 04:55:05;;;;;;;7.20;0.82;;;29.10;90.00;;;;;;4188865;28;20118;-61
2021/07/02 04:57:06;;;;;;;5.18;1.33;;;29.20;89.60;;;;;;4189902;28;20354;-60
2021/07/02 04:59:07;;;;;;;4.43;1.35;;;29.10;88.90;;;;;;4189255;28;20044;-61
2021/07/02 05:01:12;;;;;;;1.20;1.10;;;28.90;89.10;;;;;;4189545;28;20086;-61
2021/07/02 05:03:13;;;;;;;2.80;0.63;;;28.70;89.10;;;;;;4188914;28;20025;-60
2021/07/02 05:05:14;;;;;;;2.30;1.00;;;28.60;89.40;;;;;;4189365;28;20036;-62
2021/07/02 05:07:15;;;;;;;2.83;0.95;;;28.50;89.40;;;;;;4188999;28;20050;-61
2021/07/02 05:09:16;;;;;;;12.85;1.10;;;28.50;89.20;;;;;;4189890;28;20033;-61
2021/07/02 05:11:17;;;;;;;3.45;0.70;;;28.40;89.50;;;;;;4189932;28;20036;-61
2021/07/02 05:13:18;;;;;;;4.88;0.90;;;28.50;89.20;;;;;;4189817;28;20105;-61
2021/07/02 05:15:19;;;;;;;1.88;0.73;;;28.30;89.00;;;;;;4188247;28;20082;-60
2021/07/02 05:17:21;;;;;;;3.40;1.00;;;28.50;88.80;;;;;;4189209;28;20331;-61
2021/07/02 05:19:22;;;;;;;4.20;0.80;;;28.60;88.60;;;;;;4189822;28;20028;-61
2021/07/02 05:21:23;;;;;;;4.00;1.10;;;28.90;88.20;;;;;;4188706;28;20827;-61
2021/07/02 05:23:24;;;;;;;2.78;0.75;;;29.40;87.20;;;;;;4189906;28;20024;-61
2021/07/02 05:25:25;;;;;;;2.78;0.68;;;29.70;86.20;;;;;;4188881;28;20037;-61
2021/07/02 05:27:26;;;;;;;2.83;0.90;;;29.80;85.40;;;;;;4189718;28;20446;-61
2021/07/02 05:29:29;;;;;;;6.32;1.08;;;29.60;85.10;;;;;;4188553;28;20036;-61
2021/07/02 05:31:30;;;;;;;4.03;1.25;;;28.90;85.10;;;;;;4188751;28;20182;-61
2021/07/02 05:33:32;;;;;;;9.07;0.90;;;28.60;86.00;;;;;;4189120;28;20024;-61
2021/07/02 05:35:34;;;;;;;1.85;0.95;;;28.40;86.50;;;;;;4188914;28;20044;-61
2021/07/02 05:37:43;;;;;;;3.83;1.92;;;28.60;86.40;;;;;;4188635;28;20473;-61
2021/07/02 05:39:46;;;;;;;2.85;1.08;;;28.80;85.00;;;;;;4188898;28;20032;-61
2021/07/02 05:41:47;;;;;;;6.38;1.58;;;28.60;86.00;;;;;;4189725;28;20392;-61
2021/07/02 05:43:49;;;;;;;2.67;0.90;;;28.30;86.80;;;;;;4189065;28;20024;-62
2021/07/02 05:45:51;;;;;;;3.47;0.90;;;28.60;86.70;;;;;;4189267;28;20036;-61
2021/07/02 05:47:59;;;;;;;4.07;1.00;;;28.60;86.20;;;;;;4189004;28;20036;-61
2021/07/02 05:50:00;;;;;;;2.67;0.90;;;28.40;86.60;;;;;;4189413;28;20101;-62
2021/07/02 05:52:01;;;;;;;5.22;1.05;;;28.30;87.20;;;;;;4188596;28;20074;-61
2021/07/02 05:54:03;;;;;;;1.15;0.63;;;28.20;87.70;;;;;;4189718;28;20082;-62
2021/07/02 05:56:05;;;;;;;3.70;0.65;;;28.00;87.80;;;;;;4187949;28;20044;-61
2021/07/02 05:58:06;;;;;;;5.53;1.20;;;27.80;88.10;;;;;;4189194;28;20743;-61
2021/07/02 06:00:09;;;;;;;8.68;1.00;;;27.40;88.70;;;;;;4188345;28;20070;-61
2021/07/02 06:02:10;;;;;;;2.83;1.10;;;27.10;89.80;;;;;;4188985;28;20040;-61
2021/07/02 06:04:11;;;;;;;1.98;0.93;;;26.70;90.40;;;;;;4188213;28;20025;-61
2021/07/02 06:06:12;;;;;;;0.95;0.60;;;26.20;90.70;;;;;;4188967;28;20085;-61
2021/07/02 06:08:13;;;;;;;4.07;1.00;;;25.50;91.10;;;;;;4188384;28;20108;-61
2021/07/02 06:10:16;;;;;;;0.98;0.65;;;24.90;91.40;;;;;;4189106;28;20029;-61
2021/07/02 06:12:17;;;;;;;2.15;0.70;;;24.50;91.90;;;;;;4189028;28;20086;-60
2021/07/02 06:14:18;;;;;;;3.95;0.93;;;24.40;92.50;;;;;;4188872;28;20078;-61
2021/07/02 06:16:19;;;;;;;1.58;1.15;;;24.40;92.80;;;;;;4188273;28;20037;-61
2021/07/02 06:18:20;;;;;;;6.53;1.88;;;24.50;92.90;;;;;;4188288;28;20078;-61
2021/07/02 06:20:23;;;;;;;4.47;3.08;;;24.50;93.10;;;;;;4189075;28;20040;-61
2021/07/02 06:22:24;;;;;;;3.80;1.67;;;24.50;93.10;;;;;;4188175;28;20419;-60
2021/07/02 06:24:25;;;;;;;5.10;1.23;;;24.40;93.30;;;;;;4189205;28;20610;-60
2021/07/02 06:26:26;;;;;;;4.60;1.00;;;24.10;93.40;;;;;;4188158;28;20048;-62
2021/07/02 06:28:28;;;;;;;0.98;0.70;;;24.00;93.80;;;;;;4189228;28;20429;-61
2021/07/02 06:30:30;;;;;;;9.80;1.38;;;23.80;94.00;;;;;;4187449;28;20294;-61
2021/07/02 06:32:31;;;;;;;2.38;0.95;;;23.70;94.30;;;;;;4189076;28;20040;-61
2021/07/02 06:34:32;;;;;;;2.95;0.77;;;23.50;94.40;;;;;;4188123;28;20028;-62
2021/07/02 06:36:33;;;;;;;8.05;0.80;;;23.30;94.60;;;;;;4188836;28;20906;-61
2021/07/02 06:38:34;;;;;;;0.95;0.90;;;23.20;94.60;;;;;;4188059;28;20028;-61
2021/07/02 06:40:35;;;;;;;1.63;0.60;;;23.20;94.70;;;;;;4188702;28;20369;-61
2021/07/02 06:42:37;;;;;;;2.63;0.80;;;23.10;94.70;;;;;;4188292;28;20020;-61
2021/07/02 06:44:38;;;;;;;1.05;0.57;;;23.00;94.80;;;;;;4188321;28;20078;-62
2021/07/02 06:46:39;;;;;;;2.17;0.85;;;22.90;95.00;;;;;;4188347;28;20028;-61
2021/07/02 06:48:40;;;;;;;3.58;0.82;;;22.80;95.00;;;;;;4188379;28;20024;-60
2021/07/02 06:50:44;;;;;;;5.25;0.98;;;22.80;95.00;;;;;;4188350;28;20438;-60
2021/07/02 06:52:45;;;;;;;4.47;1.10;;;22.70;95.00;;;;;;4188068;28;20028;-61
2021/07/02 06:54:46;;;;;;;6.75;1.27;;;22.80;95.10;;;;;;4188495;28;20358;-60
2021/07/02 06:57:03;;;;;;;4.18;0.80;;;22.80;95.10;;;;;;4187902;28;20040;-61
2021/07/02 06:59:04;;;;;;;1.25;0.60;;;22.80;95.20;;;;;;4188045;28;20097;-60
2021/07/02 07:01:05;;;;;;;1.65;0.68;;;22.80;95.00;;;;;;4187316;28;20028;-61
2021/07/02 07:03:07;;;;;;;2.65;0.98;;;22.80;94.80;;;;;;4188036;28;20040;-61
2021/07/02 07:05:09;;;;;;;0.93;0.88;;;22.70;94.70;;;;;;4187862;28;20029;-62
2021/07/02 07:07:10;;;;;;;4.63;1.58;;;22.50;94.80;;;;;;4188314;28;20037;-60
2021/07/02 07:09:11;;;;;;;1.63;0.77;;;22.30;95.00;;;;;;4187868;28;20139;-60
2021/07/02 07:11:12;;;;;;;1.25;0.88;;;22.30;95.10;;;;;;4188728;28;20110;-61
2021/07/02 07:13:13;;;;;;;5.07;0.80;;;22.30;95.10;;;;;;4187928;28;20476;-60
2021/07/02 07:15:15;;;;;;;2.65;0.88;;;22.40;95.20;;;;;;4188852;28;20480;-60
2021/07/02 07:17:16;;;;;;;1.88;0.70;;;22.40;95.10;;;;;;4188000;28;20139;-60
2021/07/02 07:19:18;;;;;;;2.67;1.30;;;22.60;95.10;;;;;;4188181;28;20036;-61
2021/07/02 07:21:19;;;;;;;1.38;0.93;;;22.70;95.00;;;;;;4187971;28;20516;-61
2021/07/02 07:23:20;;;;;;;5.30;1.00;;;22.80;94.90;;;;;;4188573;28;20029;-61
2021/07/02 07:25:21;;;;;;;0.98;0.75;;;22.70;94.60;;;;;;4188182;28;20086;-61
2021/07/02 07:27:23;;;;;;;3.55;0.50;;;22.60;94.30;;;;;;4190084;28;20024;-61
2021/07/02 07:29:25;;;;;;;2.08;0.77;;;22.60;94.10;;;;;;4189835;28;20097;-61
2021/07/02 07:31:26;;;;;;;0.82;0.60;;;22.60;93.90;;;;;;4190101;28;20471;-60
2021/07/02 07:33:29;;;;;;;3.53;1.15;;;22.60;93.50;;;;;;4191255;28;20102;-62
2021/07/02 07:35:35;;;;;;;2.03;1.00;;;22.70;93.40;;;;;;4190057;28;20013;-61
2021/07/02 07:37:37;;;;;;;0.50;0.50;;;22.80;93.30;;;;;;4190969;28;20177;-61
2021/07/02 07:39:38;;;;;;;1.80;0.68;;;22.80;93.10;;;;;;4190534;28;20049;-61
2021/07/02 07:41:39;;;;;;;1.60;0.68;;;22.80;93.10;;;;;;4191423;28;20037;-63
2021/07/02 07:43:42;;;;;;;2.50;0.50;;;22.70;93.00;;;;;;4190651;28;20040;-61
2021/07/02 07:45:43;;;;;;;0.73;0.60;;;22.70;93.10;;;;;;4190684;28;20090;-60
2021/07/02 07:47:44;;;;;;;0.90;0.40;;;22.80;93.10;;;;;;4189882;28;20059;-63
2021/07/02 07:49:45;;;;;;;4.75;1.70;;;22.90;92.80;;;;;;4189777;28;20062;-62
2021/07/02 07:51:50;;;;;;;4.30;0.63;;;22.90;92.70;;;;;;4190404;28;20438;-61
2021/07/02 07:53:51;;;;;;;1.88;0.60;;;22.90;92.70;;;;;;4190834;28;20036;-61
2021/07/02 07:55:52;;;;;;;0.73;0.30;;;23.00;92.80;;;;;;4190778;28;20048;-61
2021/07/02 07:57:53;;;;;;;3.92;0.80;;;23.00;92.70;;;;;;4190619;28;20917;-61
2021/07/02 07:59:54;;;;;;;0.80;0.60;;;23.10;92.50;;;;;;4190960;28;20020;-61
2021/07/02 08:01:56;;;;;;;1.65;0.40;;;23.10;92.50;;;;;;4190651;28;20430;-61
2021/07/02 08:03:57;;;;;;;3.08;0.40;;;23.20;92.20;;;;;;4191053;28;20090;-61
2021/07/02 08:05:58;;;;;;;2.33;0.50;;;23.20;91.90;;;;;;4190442;28;20613;-61
2021/07/02 08:07:59;;;;;;;0.85;0.77;;;23.40;91.70;;;;;;4190763;28;20028;-60
2021/07/02 08:10:00;;;;;;;0.68;0.40;;;23.50;91.40;;;;;;4189715;28;20485;-61
2021/07/02 08:12:02;;;;;;;1.38;0.20;;;23.50;91.00;;;;;;4191529;28;20090;-60
2021/07/02 08:14:03;;;;;;;2.05;0.40;;;23.50;90.90;;;;;;4190232;28;20025;-60
2021/07/02 08:16:05;;;;;;;1.30;0.57;;;23.50;90.80;;;;;;4191286;28;20094;-61
2021/07/02 08:18:06;;;;;;;1.42;0.55;;;23.70;91.00;;;;;;4189815;28;20040;-59
2021/07/02 08:20:09;;;;;;;1.40;0.82;;;23.70;90.70;;;;;;4190183;28;20086;-61
2021/07/02 08:22:10;;;;;;;1.70;0.60;;;23.60;90.40;;;;;;4189898;28;20074;-61
2021/07/02 08:24:11;;;;;;;0.93;0.32;;;23.60;90.30;;;;;;4190908;28;20480;-61
2021/07/02 08:26:13;;;;;;;5.80;0.40;;;23.70;90.40;;;;;;4190072;28;20045;-61
2021/07/02 08:30:34;;;;;;;1.83;0.43;;;23.80;89.80;;;;;;4189530;28;20370;-60
2021/07/02 08:32:35;;;;;;;0.50;0.50;;;23.90;89.90;;;;;;4190005;28;20090;-61
2021/07/02 08:34:36;;;;;;;1.00;0.38;;;24.10;89.80;;;;;;4190719;28;20044;-60
2021/07/02 08:36:37;;;;;;;0.93;0.25;;;24.20;89.30;;;;;;4189713;28;20546;-60
2021/07/02 08:38:38;;;;;;;0.73;0.40;;;24.40;88.90;;;;;;4189865;28;20086;-61
2021/07/02 08:40:40;;;;;;;1.92;0.32;;;24.50;89.20;;;;;;4189426;28;20033;-62
2021/07/02 08:42:41;;;;;;;1.17;0.30;;;24.70;89.20;;;;;;4190703;28;20045;-60
2021/07/02 08:44:43;;;;;;;0.40;0.40;;;24.80;88.70;;;;;;4189793;28;20443;-60
2021/07/02 08:46:49;;;;;;;1.08;0.30;;;24.80;88.60;;;;;;4188950;28;21071;-61
2021/07/02 08:48:51;;;;;;;2.92;0.60;;;24.80;87.90;;;;;;4188916;28;20032;-61
2021/07/02 08:50:54;;;;;;;3.28;0.60;;;24.70;88.00;;;;;;4190337;28;20029;-61
2021/07/02 08:52:55;;;;;;;4.95;1.23;;;24.50;88.40;;;;;;4187317;28;20523;-62
2021/07/02 08:54:56;;;;;;;4.22;0.80;;;24.40;88.80;;;;;;4190717;28;20044;-61
2021/07/02 08:56:57;;;;;;;4.05;0.68;;;24.50;89.30;;;;;;4189569;28;20094;-61
2021/07/02 08:58:59;;;;;;;2.40;0.63;;;24.60;89.40;;;;;;4190137;28;20376;-61
2021/07/02 09:01:05;;;;;;;3.10;0.77;;;24.70;89.20;;;;;;4188649;28;20586;-59
2021/07/02 09:03:27;;;;;;;0.50;0.50;;;24.60;88.90;;;;;;4189881;28;20082;-62
2021/07/02 09:05:36;;;;;;;0.65;0.50;;;24.40;87.20;;;;;;4187701;28;20037;-62
2021/07/02 09:07:42;;;;;;;2.00;0.60;;;24.30;89.30;;;;;;4189306;28;20021;-61
2021/07/02 09:09:52;;;;;;;2.67;0.63;;;24.50;88.50;;;;;;4189404;28;20041;-61
2021/07/02 09:12:05;;;;;;;;;;;24.50;88.50;;;;;;4190034;28;20032;-61
2021/07/02 09:14:08;;;;;;;1.95;0.43;;;24.50;88.20;;;;;;4190060;28;19908;-62
2021/07/02 09:16:39;;;;;;;3.90;0.40;;;24.70;88.90;;;;;;4189452;28;20397;-61
2021/07/02 09:18:40;;;;;;;0.32;0.32;;;24.90;87.10;;;;;;4189054;28;20028;-61
2021/07/02 09:20:44;;;;;;;3.33;0.77;;;24.90;88.20;;;;;;4189569;28;20071;-62
2021/07/02 09:22:56;;;;;;;2.67;0.63;;;24.80;88.30;;;;;;4189339;28;20032;-62
2021/07/02 09:24:59;;;;;;;2.38;0.52;;;24.90;88.50;;;;;;4189771;28;20032;-60
2021/07/02 09:27:00;;;;;;;1.08;0.40;;;25.00;88.70;;;;;;4189060;28;20074;-63
2021/07/02 09:29:20;;;;;;;0.98;0.63;;;24.90;88.60;;;;;;4189013;28;20036;-62
2021/07/02 09:31:35;;;;;;;0.50;0.40;;;24.90;87.30;;;;;;4189182;28;20048;-63
2021/07/02 09:33:36;;;;;;;1.67;0.50;;;24.90;88.20;;;;;;4187892;28;20385;-61
2021/07/02 09:35:48;;;;;;;1.55;0.47;;;25.10;88.30;;;;;;4187196;28;20082;-61
2021/07/02 09:37:54;;;;;;;1.50;0.65;;;25.10;88.30;;;;;;4188887;28;20438;-62
2021/07/02 09:39:55;;;;;;;1.58;0.63;;;25.10;88.60;;;;;;4187683;28;20068;-61
2021/07/02 09:41:56;;;;;;;4.43;0.80;;;25.00;89.10;;;;;;4189176;28;20731;-61
2021/07/02 09:44:12;;;;;;;4.47;1.10;;;24.90;89.70;;;;;;4189277;28;20024;-61
2021/07/02 09:46:13;;;;;;;1.10;0.88;;;24.70;90.50;;;;;;4188976;28;20025;-62
2021/07/02 09:48:17;;;;;;;3.00;0.90;;;24.30;91.00;;;;;;4189046;28;20104;-62
2021/07/02 09:50:27;;;;;;;3.95;0.90;;;24.20;91.20;;;;;;4186465;28;20597;-61
2021/07/02 09:52:28;;;;;;;1.52;0.80;;;24.20;91.40;;;;;;4188223;28;20028;-60
2021/07/02 09:54:29;;;;;;;0.57;0.57;;;24.30;91.50;;;;;;4188860;28;20029;-61
2021/07/02 09:56:30;;;;;;;0.70;0.52;;;24.20;91.70;;;;;;4188527;28;20084;-60
2021/07/02 09:58:36;;;;;;;2.33;0.70;;;24.10;92.00;;;;;;4188365;28;20032;-61
2021/07/02 10:00:59;;;;;;;2.53;1.40;;;24.20;92.50;;;;;;4188558;28;20534;-60
2021/07/02 10:03:00;;;;;;;2.42;1.23;;;24.00;93.20;;;;;;4188236;28;20644;-61
2021/07/02 10:05:03;;;;;;;5.57;1.30;;;23.90;93.00;;;;;;4188700;28;20036;-59
2021/07/02 10:07:13;;;;;;;2.70;1.40;;;23.80;93.20;;;;;;4188130;28;20040;-60
2021/07/02 10:09:14;;;;;;;3.17;1.70;;;23.80;93.40;;;;;;4189172;28;20524;-60
2021/07/02 10:11:16;;;;;;;9.52;1.42;;;23.80;93.30;;;;;;4187944;28;20098;-60
2021/07/02 10:13:20;;;;;;;2.60;0.60;;;23.80;93.40;;;;;;4189575;28;20097;-60
2021/07/02 10:15:21;;;;;;;4.18;0.98;;;24.00;93.40;;;;;;4188251;28;20070;-60
2021/07/02 10:17:25;;;;;;;1.33;0.80;;;24.20;93.20;;;;;;4189062;28;20101;-61
2021/07/02 10:19:26;;;;;;;5.28;1.00;;;24.30;92.90;;;;;;4188202;28;20098;-61
2021/07/02 10:21:28;;;;;;;1.27;0.77;;;24.50;92.80;;;;;;4188872;28;20454;-61
2021/07/02 10:23:35;;;;;;;1.35;1.00;;;24.70;92.80;;;;;;4188484;28;20450;-60
2021/07/02 10:25:39;;;;;;;1.55;1.10;;;25.00;92.90;;;;;;4188682;28;20357;-61
2021/07/02 10:27:40;;;;;;;11.27;1.98;;;25.10;92.90;;;;;;4187832;28;20036;-60
2021/07/02 10:29:43;;;;;;;4.75;1.48;;;25.30;92.80;;;;;;4189034;28;20032;-61
2021/07/02 10:31:44;;;;;;;2.25;1.25;;;25.20;93.00;;;;;;4188141;28;20044;-61
2021/07/02 10:33:48;;;;;;;4.57;1.27;;;25.30;93.10;;;;;;4188057;28;20724;-61
2021/07/02 10:36:01;;;;;;;1.30;1.02;;;25.40;93.00;;;;;;4188814;28;20980;-61
2021/07/02 10:38:04;;;;;;;1.98;0.77;;;25.40;92.10;;;;;;4188134;28;20028;-61
2021/07/02 10:40:34;;;;;;;5.70;0.90;;;25.50;91.80;;;;;;4188491;28;20767;-61